Virtual Cathay Airport Information Service

Chongqing Jiangbei International Airport

ICAO: ZUCK Country: China
Latitude: 29.7192 Longitude: 106.642
Latest Arrival : CPC891 (VHHH-ZUCK) Latest Departure : CPC366 (ZUCK-VMMC)


WX CaptureLIVE
Data provided by noaa.gov | Fetched at 19:23:51

METAR : ZUCK 201000Z 16002MPS 130V190 7000 SCT020 OVC033 19/16 Q1009 NOSIG

TAF : ZUCK 200306Z 2006/2106 30003MPS 5000 BR SCT016 OVC050 TX19/2007Z TN14/2022Z TEMPO 2018/2022 SHRA


Runway Data for ZUCK
Data provided by openaviationdata.com

Runway ID Mag Var Hdg Length Elevation Surface ILS Freq ILS Id ILS Slope
2 -2 18° 10523 ft 1365 ft Concrete 109.7 IWX 3
20 -2 198° 10523 ft 1365 ft Concrete 108.1 IOS 3

Chongqing Jiangbei International Airport, China
Use only for reference purposes



Not for navigational purposes.